Time;durP1;ratioP1;P1;durP2;ratioP2;P2;SDS_P1;SDS_P2;PMS_P1;PMS_P2;Temp;Humidity;BMP_temperature;BMP_pressure;BME280_temperature;BME280_humidity;BME280_pressure;Samples;Min_cycle;Max_cycle;Signal;HPM_P1;HPM_P2
2022/05/31 00:00:22;;;;;;;3.70;2.10;;;10.40;99.90;;;;;;5014918;28;20038;-65
2022/05/31 00:02:49;;;;;;;3.45;2.22;;;10.40;99.90;;;;;;5016977;28;20404;-64
2022/05/31 00:05:15;;;;;;;3.05;2.05;;;10.40;99.90;;;;;;5016838;28;20069;-66
2022/05/31 00:07:41;;;;;;;4.57;2.10;;;10.30;99.90;;;;;;5016092;28;20445;-66
2022/05/31 00:10:12;;;;;;;3.80;1.90;;;10.30;99.90;;;;;;5025574;28;20038;-65
2022/05/31 00:12:39;;;;;;;4.30;2.30;;;10.30;99.90;;;;;;4997308;28;20044;-64
2022/05/31 00:15:06;;;;;;;2.47;2.08;;;10.20;99.90;;;;;;4997830;28;20045;-65
2022/05/31 00:17:32;;;;;;;2.92;2.10;;;10.20;99.90;;;;;;5020423;28;20042;-64
2022/05/31 00:19:58;;;;;;;4.65;2.50;;;10.20;99.90;;;;;;5009197;28;20500;-64
2022/05/31 00:22:26;;;;;;;2.67;1.90;;;10.20;99.90;;;;;;5018057;28;20029;-64
2022/05/31 00:24:52;;;;;;;4.53;2.20;;;10.10;99.90;;;;;;5023379;28;20034;-65
2022/05/31 00:27:20;;;;;;;4.57;2.20;;;10.10;99.90;;;;;;4994826;28;20048;-65
2022/05/31 00:29:47;;;;;;;3.35;2.35;;;10.10;99.90;;;;;;4998848;28;20076;-64
2022/05/31 00:32:15;;;;;;;3.25;1.90;;;10.10;99.90;;;;;;5026590;28;20037;-67
2022/05/31 00:34:46;;;;;;;3.33;2.03;;;10.10;99.90;;;;;;5023886;28;20068;-65
2022/05/31 00:37:12;;;;;;;3.30;2.30;;;10.00;99.90;;;;;;5015626;28;20512;-64
2022/05/31 00:39:38;;;;;;;5.03;2.20;;;10.00;99.90;;;;;;5013263;28;20450;-65
2022/05/31 00:42:11;;;;;;;6.78;2.40;;;10.00;99.90;;;;;;5022088;28;20052;-65
2022/05/31 00:44:37;;;;;;;5.30;2.53;;;10.00;99.90;;;;;;5000091;28;20060;-64
2022/05/31 00:47:32;;;;;;;3.63;2.30;;;10.00;99.90;;;;;;5000976;28;20130;-69
2022/05/31 00:50:01;;;;;;;5.30;2.50;;;10.00;99.90;;;;;;5011768;28;20042;-65
2022/05/31 00:52:35;;;;;;;3.15;2.33;;;9.90;99.90;;;;;;5005175;28;20041;-64
2022/05/31 00:55:10;;;;;;;3.50;2.40;;;9.90;99.90;;;;;;4983250;28;20586;-64
2022/05/31 00:57:40;;;;;;;4.88;2.50;;;9.90;99.90;;;;;;5014842;28;20487;-65
2022/05/31 01:00:10;;;;;;;4.20;2.20;;;9.90;99.90;;;;;;5022873;28;20040;-65
2022/05/31 01:02:36;;;;;;;4.28;2.53;;;9.80;99.90;;;;;;5023018;28;20052;-67
2022/05/31 01:05:05;;;;;;;5.70;2.40;;;9.80;99.90;;;;;;5001031;28;20050;-65
2022/05/31 01:07:31;;;;;;;5.65;2.55;;;9.80;99.90;;;;;;5024468;28;20381;-64
2022/05/31 01:09:57;;;;;;;3.47;2.42;;;9.80;99.90;;;;;;5016515;28;20496;-65
2022/05/31 01:12:24;;;;;;;2.90;2.35;;;9.80;99.90;;;;;;5023150;28;20413;-64
2022/05/31 01:14:50;;;;;;;2.72;2.20;;;9.80;99.90;;;;;;5028420;28;20049;-69
2022/05/31 01:17:18;;;;;;;3.25;2.67;;;9.80;99.90;;;;;;4989752;28;20439;-64
2022/05/31 01:19:58;;;;;;;3.67;2.13;;;9.70;99.90;;;;;;5013977;28;20165;-67
2022/05/31 01:22:39;;;;;;;4.93;2.80;;;9.70;99.90;;;;;;5003273;28;20051;-64
2022/05/31 01:25:28;;;;;;;4.32;2.65;;;9.70;99.90;;;;;;5019032;28;20045;-65
2022/05/31 01:28:29;;;;;;;4.57;2.72;;;9.70;99.90;;;;;;5018236;28;20530;-65
2022/05/31 01:31:06;;;;;;;4.95;3.03;;;9.70;99.90;;;;;;4991892;28;20505;-65
2022/05/31 01:33:40;;;;;;;4.55;2.75;;;9.70;99.90;;;;;;5014752;28;20034;-65
2022/05/31 01:36:10;;;;;;;5.25;2.72;;;9.70;99.90;;;;;;4993811;28;20092;-64
2022/05/31 01:38:48;;;;;;;4.95;2.65;;;9.70;99.90;;;;;;5003707;28;20049;-65
2022/05/31 01:41:30;;;;;;;4.25;2.70;;;9.70;99.90;;;;;;5005965;28;20049;-65
2022/05/31 01:43:59;;;;;;;4.78;2.72;;;9.60;99.90;;;;;;5019331;28;20048;-65
2022/05/31 01:46:31;;;;;;;3.83;2.72;;;9.70;99.90;;;;;;5018948;28;20081;-65
2022/05/31 01:48:58;;;;;;;;;;;9.70;99.90;;;;;;5020238;28;20580;-67
2022/05/31 01:51:23;;;;;;;4.57;2.92;;;9.70;99.90;;;;;;4989821;28;19918;-65
2022/05/31 01:53:51;;;;;;;4.72;2.90;;;9.70;99.90;;;;;;5013181;28;20052;-66
2022/05/31 01:56:17;;;;;;;6.05;2.92;;;9.70;99.90;;;;;;5016886;28;20041;-69
2022/05/31 01:58:48;;;;;;;5.28;3.10;;;9.80;99.90;;;;;;5001217;28;20169;-65
2022/05/31 02:01:15;;;;;;;6.38;3.30;;;9.80;99.90;;;;;;5005099;28;20052;-64
2022/05/31 02:03:42;;;;;;;4.88;3.25;;;9.80;99.90;;;;;;5026627;28;20068;-65
2022/05/31 02:06:30;;;;;;;3.65;2.70;;;9.80;99.90;;;;;;5019392;28;20554;-65
2022/05/31 02:08:56;;;;;;;6.05;3.20;;;9.80;99.90;;;;;;5006232;28;20389;-65
2022/05/31 02:11:23;;;;;;;5.00;3.28;;;9.80;99.90;;;;;;4999184;28;20052;-65
2022/05/31 02:13:52;;;;;;;4.95;3.22;;;9.90;99.90;;;;;;5015921;28;20049;-65
2022/05/31 02:16:17;;;;;;;6.60;3.58;;;9.90;99.90;;;;;;5023126;28;20124;-66
2022/05/31 02:21:35;;;;;;;5.78;3.10;;;9.90;99.90;;;;;;4990759;28;20443;-66
2022/05/31 02:24:03;;;;;;;6.80;3.78;;;9.90;99.90;;;;;;5002654;28;20170;-65
2022/05/31 02:26:28;;;;;;;6.82;3.38;;;9.90;99.90;;;;;;5019925;28;20053;-66
2022/05/31 02:28:54;;;;;;;6.45;3.83;;;10.00;99.90;;;;;;5021530;28;20488;-66
2022/05/31 02:31:19;;;;;;;8.43;3.95;;;10.00;99.90;;;;;;5023775;28;20480;-66
2022/05/31 02:33:45;;;;;;;6.03;3.42;;;10.00;99.90;;;;;;5018835;28;20576;-66
2022/05/31 02:36:10;;;;;;;4.82;3.47;;;10.00;99.90;;;;;;5022343;28;20116;-66
2022/05/31 02:38:36;;;;;;;5.22;3.47;;;10.00;99.90;;;;;;5015919;28;20184;-66
2022/05/31 02:41:01;;;;;;;5.10;3.80;;;10.00;99.90;;;;;;5014659;28;20049;-66
2022/05/31 02:43:27;;;;;;;5.28;3.58;;;10.00;99.90;;;;;;5024210;28;20033;-66
2022/05/31 02:45:53;;;;;;;5.60;3.75;;;10.00;99.90;;;;;;5018565;28;20037;-66
2022/05/31 02:48:20;;;;;;;5.07;3.70;;;10.00;99.90;;;;;;4989522;28;20609;-66
2022/05/31 02:50:45;;;;;;;5.57;4.10;;;10.10;99.90;;;;;;5016066;28;20149;-66
2022/05/31 02:53:11;;;;;;;6.03;4.55;;;10.00;99.90;;;;;;4996063;28;20125;-66
2022/05/31 02:55:36;;;;;;;7.22;4.28;;;10.00;99.90;;;;;;5009132;28;20544;-66
2022/05/31 02:58:02;;;;;;;6.13;4.25;;;10.00;99.90;;;;;;4996313;28;20064;-66
2022/05/31 03:00:27;;;;;;;7.45;4.50;;;10.00;99.90;;;;;;5016112;28;20037;-66
2022/05/31 03:02:53;;;;;;;5.72;4.18;;;10.10;99.90;;;;;;5024575;28;20480;-66
2022/05/31 03:05:19;;;;;;;6.30;4.10;;;10.10;99.90;;;;;;5002437;28;20041;-66
2022/05/31 03:07:44;;;;;;;6.65;4.47;;;10.10;99.90;;;;;;5025626;28;20125;-66
2022/05/31 03:10:10;;;;;;;5.47;4.35;;;10.10;99.90;;;;;;5015702;28;20084;-66
2022/05/31 03:12:36;;;;;;;5.70;4.30;;;10.10;99.90;;;;;;5012744;28;20033;-66
2022/05/31 03:15:07;;;;;;;5.35;4.28;;;10.10;99.90;;;;;;4996252;28;20455;-66
2022/05/31 03:17:37;;;;;;;8.02;4.60;;;10.10;99.90;;;;;;4993346;28;20046;-66
2022/05/31 03:20:35;;;;;;;7.45;4.60;;;10.10;99.90;;;;;;5011760;28;20072;-66
2022/05/31 03:23:11;;;;;;;6.60;4.20;;;10.10;99.90;;;;;;4994561;28;20061;-66
2022/05/31 03:25:40;;;;;;;7.65;4.07;;;10.10;99.90;;;;;;5004319;28;20258;-66
2022/05/31 03:28:07;;;;;;;7.47;4.20;;;10.10;99.90;;;;;;5022800;28;20045;-66
2022/05/31 03:30:36;;;;;;;5.57;4.28;;;10.10;99.90;;;;;;5004747;28;20080;-66
2022/05/31 03:33:03;;;;;;;5.80;4.68;;;10.10;99.90;;;;;;5006749;28;20488;-66
2022/05/31 03:35:29;;;;;;;7.25;4.30;;;10.10;99.90;;;;;;5002808;28;20042;-66
2022/05/31 03:37:55;;;;;;;6.75;4.53;;;10.10;99.90;;;;;;5010320;28;20503;-66
2022/05/31 03:43:05;;;;;;;6.50;4.35;;;10.20;99.90;;;;;;5010876;28;20129;-66
2022/05/31 03:45:39;;;;;;;6.55;4.63;;;10.20;99.90;;;;;;4988564;28;20128;-66
2022/05/31 03:48:05;;;;;;;6.93;4.13;;;10.20;99.90;;;;;;5009026;28;20488;-66
2022/05/31 03:50:31;;;;;;;7.38;4.60;;;10.20;99.90;;;;;;5002297;28;20041;-66
2022/05/31 03:52:57;;;;;;;7.97;4.40;;;10.20;99.90;;;;;;4997356;28;20038;-66
2022/05/31 03:55:22;;;;;;;7.25;4.43;;;10.20;99.90;;;;;;5026095;28;20503;-66
2022/05/31 03:57:50;;;;;;;7.63;4.68;;;10.20;99.90;;;;;;5029443;28;20045;-66
2022/05/31 04:00:16;;;;;;;6.63;4.47;;;10.20;99.90;;;;;;5004253;28;20401;-66
2022/05/31 04:02:41;;;;;;;5.97;4.40;;;10.30;99.90;;;;;;5024597;28;20045;-66
2022/05/31 04:05:07;;;;;;;6.07;4.28;;;10.30;99.90;;;;;;5011663;28;20044;-66
2022/05/31 04:07:34;;;;;;;7.22;4.85;;;10.30;99.90;;;;;;5018874;28;20042;-66
2022/05/31 04:10:03;;;;;;;7.03;4.35;;;10.30;99.90;;;;;;5005130;28;20046;-66
2022/05/31 04:12:30;;;;;;;6.97;4.40;;;10.30;99.90;;;;;;5015225;28;20553;-66
2022/05/31 04:14:57;;;;;;;6.35;4.20;;;10.30;99.90;;;;;;5002690;28;20120;-66
2022/05/31 04:17:22;;;;;;;5.88;4.45;;;10.30;99.90;;;;;;5015548;28;20736;-66
2022/05/31 04:19:48;;;;;;;6.22;4.70;;;10.30;99.90;;;;;;5000730;28;20038;-66
2022/05/31 04:22:14;;;;;;;6.38;4.32;;;10.30;99.90;;;;;;5004645;28;20443;-66
2022/05/31 04:24:39;;;;;;;5.65;4.18;;;10.30;99.90;;;;;;5001300;28;20049;-66
2022/05/31 04:27:05;;;;;;;6.47;4.40;;;10.30;99.90;;;;;;4999272;28;20046;-66
2022/05/31 04:29:31;;;;;;;5.40;4.22;;;10.40;99.90;;;;;;5000914;28;20037;-65
2022/05/31 04:31:56;;;;;;;6.75;4.30;;;10.40;99.90;;;;;;4997108;28;20036;-66
2022/05/31 04:34:22;;;;;;;6.88;4.50;;;10.40;99.90;;;;;;5021566;28;20045;-66
2022/05/31 04:36:47;;;;;;;7.00;4.45;;;10.40;99.90;;;;;;5004010;28;20038;-66
2022/05/31 04:39:13;;;;;;;6.82;4.15;;;10.40;99.90;;;;;;5029460;28;20511;-66
2022/05/31 04:41:38;;;;;;;8.38;4.30;;;10.50;99.90;;;;;;4979471;28;20141;-66
2022/05/31 04:44:05;;;;;;;6.85;4.40;;;10.50;99.90;;;;;;5007122;28;20113;-66
2022/05/31 04:46:32;;;;;;;6.97;4.25;;;10.50;99.90;;;;;;5019384;28;20038;-66
2022/05/31 04:49:02;;;;;;;7.72;4.00;;;10.50;99.90;;;;;;5012755;28;20069;-66
2022/05/31 04:51:29;;;;;;;5.85;4.30;;;10.50;99.90;;;;;;5020532;28;20369;-66
2022/05/31 04:53:55;;;;;;;7.25;4.28;;;10.60;99.90;;;;;;5019801;28;20084;-66
2022/05/31 04:56:21;;;;;;;6.10;4.15;;;10.60;99.90;;;;;;5014893;28;20120;-66
2022/05/31 04:58:48;;;;;;;6.07;4.20;;;10.60;99.90;;;;;;5000630;28;20049;-66
2022/05/31 05:01:14;;;;;;;7.25;4.43;;;10.60;99.90;;;;;;5018727;28;20080;-66
2022/05/31 05:03:44;;;;;;;6.15;4.05;;;10.70;99.90;;;;;;5006589;28;20500;-66
2022/05/31 05:06:11;;;;;;;6.18;4.13;;;10.70;99.90;;;;;;5012177;28;20439;-66
2022/05/31 05:08:38;;;;;;;8.20;4.10;;;10.70;99.90;;;;;;5014062;28;20499;-66
2022/05/31 05:11:07;;;;;;;6.05;3.90;;;10.70;99.90;;;;;;5019043;28;20401;-66
2022/05/31 05:13:33;;;;;;;6.00;4.20;;;10.80;99.90;;;;;;5018656;28;20034;-65
2022/05/31 05:16:00;;;;;;;5.55;4.05;;;10.80;99.90;;;;;;5013550;28;20038;-65
2022/05/31 05:18:27;;;;;;;11.73;4.20;;;10.80;99.90;;;;;;5019445;28;20061;-65
2022/05/31 05:20:53;;;;;;;6.90;3.90;;;10.80;99.90;;;;;;4995172;28;20037;-65
2022/05/31 05:23:18;;;;;;;5.72;4.05;;;10.90;99.90;;;;;;5003878;28;20044;-66
2022/05/31 05:25:52;;;;;;;6.80;4.20;;;10.90;99.90;;;;;;5012821;28;20042;-65
2022/05/31 05:31:04;;;;;;;7.07;3.78;;;11.00;99.90;;;;;;5023920;28;20041;-65
2022/05/31 05:33:30;;;;;;;7.75;4.40;;;11.00;99.90;;;;;;5028508;28;20062;-65
2022/05/31 05:35:56;;;;;;;6.50;4.20;;;11.10;99.90;;;;;;5021127;28;20116;-66
2022/05/31 05:38:22;;;;;;;7.82;4.53;;;11.10;99.90;;;;;;5005404;28;20045;-65
2022/05/31 05:40:48;;;;;;;6.32;4.45;;;11.10;99.90;;;;;;5010215;28;20048;-65
2022/05/31 05:43:13;;;;;;;5.50;3.97;;;11.20;99.90;;;;;;4998054;28;20099;-65
2022/05/31 05:45:39;;;;;;;6.63;4.00;;;11.20;99.90;;;;;;5000552;28;20046;-65
2022/05/31 05:48:06;;;;;;;6.25;4.45;;;11.30;99.90;;;;;;4998877;28;20042;-65
2022/05/31 05:50:34;;;;;;;7.13;3.80;;;11.30;99.90;;;;;;5013451;28;20030;-65
2022/05/31 05:53:04;;;;;;;7.72;4.05;;;11.30;99.90;;;;;;5019336;28;20038;-65
2022/05/31 05:55:30;;;;;;;5.05;3.75;;;11.40;99.90;;;;;;5006047;28;20033;-66
2022/05/31 05:57:56;;;;;;;7.35;4.00;;;11.40;99.90;;;;;;4998832;28;20080;-66
2022/05/31 06:00:22;;;;;;;8.85;4.45;;;11.40;99.90;;;;;;5015814;28;20045;-66
2022/05/31 06:02:55;;;;;;;6.22;4.00;;;11.50;99.90;;;;;;5005938;28;20084;-66
2022/05/31 06:05:26;;;;;;;6.35;3.95;;;11.60;99.90;;;;;;4996233;28;20045;-66
2022/05/31 06:07:57;;;;;;;7.47;4.18;;;11.60;99.90;;;;;;5025929;28;20037;-66
2022/05/31 06:10:28;;;;;;;8.70;4.15;;;11.60;99.90;;;;;;5008244;28;20084;-66
2022/05/31 06:13:03;;;;;;;5.60;3.83;;;11.70;99.90;;;;;;5005460;28;20040;-66
2022/05/31 06:15:33;;;;;;;6.03;4.00;;;11.80;99.90;;;;;;5016318;28;20347;-66
2022/05/31 06:18:04;;;;;;;6.70;3.70;;;11.80;99.90;;;;;;5001971;28;20160;-66
2022/05/31 06:20:29;;;;;;;5.93;3.47;;;11.90;99.90;;;;;;5003066;28;20118;-66
2022/05/31 06:22:56;;;;;;;10.40;4.07;;;11.90;99.90;;;;;;4999515;28;20120;-66
2022/05/31 06:25:22;;;;;;;6.55;3.80;;;12.00;99.90;;;;;;5011422;28;20042;-66
2022/05/31 06:27:48;;;;;;;7.07;3.60;;;12.00;99.90;;;;;;5001018;28;20527;-66
2022/05/31 06:30:14;;;;;;;6.75;3.65;;;12.10;99.90;;;;;;5017914;28;20046;-66
2022/05/31 06:32:39;;;;;;;5.97;3.42;;;12.10;99.90;;;;;;5017797;28;20048;-66
2022/05/31 06:35:05;;;;;;;7.03;4.03;;;12.10;99.90;;;;;;5021987;28;20391;-66
2022/05/31 06:37:31;;;;;;;5.00;3.72;;;12.10;99.90;;;;;;5016684;28;20092;-66
2022/05/31 06:39:57;;;;;;;6.82;3.75;;;12.10;99.90;;;;;;5000952;28;20492;-67
2022/05/31 06:42:23;;;;;;;4.75;3.30;;;12.10;99.90;;;;;;5011300;28;20042;-66
2022/05/31 06:44:49;;;;;;;7.85;3.88;;;12.20;99.90;;;;;;4997955;28;20095;-66
2022/05/31 06:47:15;;;;;;;7.32;4.05;;;12.10;99.90;;;;;;5019113;28;20042;-66
2022/05/31 06:49:41;;;;;;;6.45;3.78;;;12.10;99.90;;;;;;5011181;28;20038;-66
2022/05/31 06:57:41;;;;;;;6.07;3.70;;;12.10;99.90;;;;;;4999815;28;20555;-66
2022/05/31 07:00:14;;;;;;;6.40;4.05;;;12.10;99.90;;;;;;5011282;28;20042;-66
2022/05/31 07:02:40;;;;;;;5.50;3.78;;;12.10;99.90;;;;;;5011374;28;20112;-66
2022/05/31 07:05:06;;;;;;;6.70;3.92;;;12.10;99.90;;;;;;5024896;28;20084;-66
2022/05/31 07:07:31;;;;;;;7.05;4.35;;;12.10;99.90;;;;;;5018987;28;20470;-66
2022/05/31 07:09:57;;;;;;;7.05;4.05;;;12.10;99.90;;;;;;5020913;28;20069;-66
2022/05/31 07:12:23;;;;;;;8.82;4.68;;;12.20;99.90;;;;;;5014891;28;20091;-66
2022/05/31 07:14:49;;;;;;;6.53;3.75;;;12.20;99.90;;;;;;5016555;28;20049;-66
2022/05/31 07:17:14;;;;;;;7.57;3.50;;;12.30;99.90;;;;;;5006516;28;20045;-66
2022/05/31 07:19:42;;;;;;;10.45;3.90;;;12.30;99.90;;;;;;4999542;28;20037;-66
2022/05/31 07:22:08;;;;;;;7.35;3.85;;;12.40;99.90;;;;;;5011995;28;20037;-66
2022/05/31 07:24:33;;;;;;;6.35;3.85;;;12.40;99.90;;;;;;5021099;28;20408;-66
2022/05/31 07:26:59;;;;;;;6.75;4.22;;;12.50;99.90;;;;;;4996894;28;20100;-66
2022/05/31 07:29:25;;;;;;;7.88;3.65;;;12.50;99.90;;;;;;5014970;28;20096;-66
2022/05/31 07:31:50;;;;;;;5.82;3.50;;;12.60;99.90;;;;;;5008925;28;20070;-66
2022/05/31 07:34:17;;;;;;;7.43;3.78;;;12.60;99.90;;;;;;5023617;28;20089;-66
2022/05/31 07:36:43;;;;;;;9.60;3.83;;;12.70;99.90;;;;;;5016949;28;20042;-66
2022/05/31 07:39:13;;;;;;;7.50;3.42;;;12.70;99.90;;;;;;4994806;28;20046;-66
2022/05/31 07:41:38;;;;;;;7.70;4.20;;;12.80;99.90;;;;;;5016419;28;20041;-66
2022/05/31 07:44:04;;;;;;;8.45;4.20;;;12.90;99.90;;;;;;4994197;28;20044;-66
2022/05/31 07:46:30;;;;;;;8.10;4.32;;;12.90;99.90;;;;;;5019755;28;20152;-66
2022/05/31 07:48:57;;;;;;;6.95;4.10;;;13.00;99.90;;;;;;4999049;28;20057;-66
2022/05/31 07:51:25;;;;;;;10.40;4.78;;;13.00;99.90;;;;;;4993273;28;20038;-66
2022/05/31 07:53:51;;;;;;;8.70;4.35;;;13.10;99.90;;;;;;5004437;28;20052;-66
2022/05/31 07:56:17;;;;;;;7.78;4.75;;;13.30;99.90;;;;;;5018206;28;20404;-66
2022/05/31 07:58:44;;;;;;;8.40;4.43;;;13.30;99.90;;;;;;5021565;28;20038;-66
2022/05/31 08:01:13;;;;;;;7.63;4.15;;;13.40;99.90;;;;;;5017624;28;20038;-66
2022/05/31 08:03:39;;;;;;;14.40;4.70;;;13.50;99.90;;;;;;5009062;28;20046;-66
2022/05/31 08:06:08;;;;;;;6.63;4.32;;;13.60;99.90;;;;;;5006160;28;20045;-66
2022/05/31 08:08:35;;;;;;;8.02;4.18;;;13.60;99.90;;;;;;5004972;28;20528;-66
2022/05/31 08:11:09;;;;;;;9.00;4.47;;;13.70;99.90;;;;;;5003951;28;20038;-66
2022/05/31 08:13:35;;;;;;;8.70;4.57;;;13.80;99.90;;;;;;5013381;28;20034;-66
2022/05/31 08:16:03;;;;;;;8.05;4.50;;;13.90;99.90;;;;;;5001641;28;20432;-66
2022/05/31 08:18:29;;;;;;;7.07;4.80;;;14.10;99.90;;;;;;5023396;28;20037;-66
2022/05/31 08:24:21;;;;;;;8.77;4.70;;;14.50;99.90;;;;;;4987272;28;20050;-66
2022/05/31 08:26:46;;;;;;;10.98;5.13;;;14.80;99.90;;;;;;4995354;28;20061;-66
2022/05/31 08:29:12;;;;;;;7.55;4.65;;;15.10;99.90;;;;;;4999171;28;20121;-66
2022/05/31 08:31:37;;;;;;;7.88;4.53;;;15.40;99.90;;;;;;5029434;28;20037;-66
2022/05/31 08:34:04;;;;;;;6.82;4.38;;;15.60;99.90;;;;;;4991344;28;20517;-66
2022/05/31 08:36:30;;;;;;;10.00;5.18;;;15.90;99.90;;;;;;5014243;28;20120;-66
2022/05/31 08:38:56;;;;;;;9.10;4.65;;;16.10;99.80;;;;;;5018944;28;20129;-65
2022/05/31 08:41:32;;;;;;;9.90;4.90;;;16.30;99.90;;;;;;5025681;28;20045;-65
2022/05/31 08:44:17;;;;;;;9.93;4.63;;;16.40;99.40;;;;;;5004404;28;20046;-65
2022/05/31 08:47:22;;;;;;;9.10;4.65;;;16.60;96.40;;;;;;5001480;28;20050;-66
2022/05/31 08:53:35;;;;;;;10.43;5.00;;;16.70;95.80;;;;;;5018861;28;20124;-66
2022/05/31 08:59:33;;;;;;;7.85;4.60;;;16.60;95.20;;;;;;4998209;28;20559;-66
2022/05/31 09:02:02;;;;;;;7.10;4.32;;;16.50;94.90;;;;;;4994759;28;20424;-66
2022/05/31 09:04:35;;;;;;;8.32;5.07;;;16.40;96.30;;;;;;5025832;28;20033;-66
2022/05/31 09:07:10;;;;;;;7.47;5.07;;;16.40;95.20;;;;;;4997244;28;20546;-65
2022/05/31 09:09:45;;;;;;;9.13;4.63;;;16.40;96.00;;;;;;5019486;28;20109;-66
2022/05/31 09:12:24;;;;;;;9.23;5.18;;;16.40;96.00;;;;;;5018469;28;20377;-65
2022/05/31 09:15:25;;;;;;;9.63;5.03;;;16.40;94.70;;;;;;5018405;28;20046;-66
2022/05/31 09:18:38;;;;;;;8.63;5.18;;;16.40;92.10;;;;;;5002981;28;20053;-66
2022/05/31 09:21:37;;;;;;;8.25;4.15;;;16.60;94.70;;;;;;4973701;28;20073;-66
2022/05/31 09:24:04;;;;;;;8.57;4.40;;;16.80;94.40;;;;;;4995501;28;20141;-66
2022/05/31 09:26:40;;;;;;;7.80;4.40;;;16.80;94.50;;;;;;5013862;28;20511;-66
2022/05/31 09:29:21;;;;;;;7.68;4.10;;;16.80;93.70;;;;;;5005696;28;20053;-66
2022/05/31 09:32:16;;;;;;;8.70;4.40;;;16.80;93.20;;;;;;5021254;28;20091;-66
2022/05/31 09:34:48;;;;;;;7.93;4.07;;;16.80;93.00;;;;;;5019378;28;20041;-66
2022/05/31 09:37:47;;;;;;;10.07;4.20;;;16.70;93.30;;;;;;5020040;28;20038;-66
2022/05/31 09:40:31;;;;;;;5.55;3.55;;;16.60;92.90;;;;;;5010356;28;20049;-66
2022/05/31 09:43:23;;;;;;;6.72;4.13;;;16.50;93.40;;;;;;4995235;28;20512;-66
2022/05/31 09:46:11;;;;;;;;;;;16.40;92.70;;;;;;4991499;28;20038;-66
2022/05/31 09:48:49;;;;;;;7.13;4.30;;;16.20;91.30;;;;;;4998327;28;19983;-66
2022/05/31 09:51:17;;;;;;;7.28;4.07;;;16.10;91.90;;;;;;4994251;28;20105;-66
2022/05/31 09:59:20;;;;;;;9.20;4.10;;;15.90;92.60;;;;;;5021113;28;20046;-65
2022/05/31 10:01:47;;;;;;;8.75;3.90;;;15.80;92.30;;;;;;5005914;28;20081;-66
2022/05/31 10:04:30;;;;;;;6.32;3.97;;;15.90;92.60;;;;;;5003021;28;20450;-66
2022/05/31 10:07:03;;;;;;;8.65;4.35;;;15.90;92.60;;;;;;4996311;28;20461;-66
2022/05/31 10:09:31;;;;;;;10.70;4.60;;;15.80;92.90;;;;;;5017303;28;20068;-65
2022/05/31 10:12:13;;;;;;;9.00;4.65;;;15.70;92.60;;;;;;5003784;28;20091;-66
2022/05/31 10:14:46;;;;;;;8.55;4.93;;;15.70;92.30;;;;;;5022604;28;20049;-66
2022/05/31 10:17:32;;;;;;;8.77;4.80;;;15.60;92.70;;;;;;5008020;28;20040;-66
2022/05/31 10:20:15;;;;;;;9.05;4.93;;;15.60;92.50;;;;;;5013453;28;20392;-66
2022/05/31 10:22:49;;;;;;;6.97;4.40;;;15.50;93.00;;;;;;4989181;28;20488;-66
2022/05/31 10:25:22;;;;;;;8.43;4.57;;;15.50;93.10;;;;;;5014582;28;20045;-66
2022/05/31 10:27:54;;;;;;;9.10;4.45;;;15.50;93.50;;;;;;5016085;28;20050;-66
2022/05/31 10:30:23;;;;;;;5.32;4.20;;;15.40;93.00;;;;;;5011691;28;20047;-66
2022/05/31 10:32:52;;;;;;;6.85;3.85;;;15.40;92.80;;;;;;5019494;28;20033;-66
2022/05/31 10:35:30;;;;;;;7.15;3.80;;;15.30;92.40;;;;;;5023397;28;20037;-66
2022/05/31 10:38:17;;;;;;;7.35;3.78;;;15.30;92.10;;;;;;5025993;28;20045;-66
2022/05/31 10:40:52;;;;;;;7.43;3.55;;;15.30;92.70;;;;;;4989019;28;20137;-66
2022/05/31 10:43:35;;;;;;;7.47;3.65;;;15.30;92.60;;;;;;4994318;28;20048;-65
2022/05/31 10:46:11;;;;;;;;;;;15.30;92.40;;;;;;5012044;28;20121;-66
2022/05/31 10:48:47;;;;;;;5.28;3.78;;;15.30;91.60;;;;;;4998538;28;19996;-66
2022/05/31 10:51:39;;;;;;;9.05;4.22;;;15.30;92.00;;;;;;5004425;28;20052;-66
2022/05/31 10:54:50;;;;;;;9.18;4.07;;;15.20;92.40;;;;;;4990655;28;20081;-65
2022/05/31 10:57:32;;;;;;;8.10;4.07;;;15.20;91.70;;;;;;4983564;28;20225;-66
2022/05/31 11:00:20;;;;;;;8.30;4.88;;;15.10;91.90;;;;;;5011560;28;20034;-66
2022/05/31 11:03:07;;;;;;;11.05;5.78;;;15.10;91.80;;;;;;5005079;28;20049;-66
2022/05/31 11:05:45;;;;;;;14.50;6.35;;;15.10;92.20;;;;;;4992749;28;20480;-65
2022/05/31 11:11:29;;;;;;;8.88;5.53;;;15.10;93.10;;;;;;5001330;28;20042;-66
2022/05/31 11:14:19;;;;;;;9.35;6.00;;;15.10;93.30;;;;;;4992206;28;20184;-65
2022/05/31 11:16:54;;;;;;;11.88;6.28;;;15.10;93.60;;;;;;4996674;28;20096;-66
2022/05/31 11:19:52;;;;;;;10.35;6.50;;;15.10;93.80;;;;;;4998584;28;20128;-65
2022/05/31 11:22:49;;;;;;;10.20;6.32;;;15.10;93.70;;;;;;4944404;28;20056;-66
2022/05/31 11:25:36;;;;;;;8.07;6.00;;;15.10;93.10;;;;;;5004946;28;20041;-66
2022/05/31 11:28:23;;;;;;;9.43;5.70;;;15.10;93.40;;;;;;5010723;28;20061;-66
2022/05/31 11:31:01;;;;;;;9.38;5.95;;;15.00;93.60;;;;;;4999008;28;20050;-66
2022/05/31 11:33:53;;;;;;;9.73;5.78;;;15.10;93.60;;;;;;4996074;28;20388;-66
2022/05/31 11:36:37;;;;;;;9.85;5.80;;;15.10;93.60;;;;;;4992522;28;20045;-66
2022/05/31 11:39:42;;;;;;;11.00;6.03;;;15.10;94.30;;;;;;5006338;28;20046;-66
2022/05/31 11:42:45;;;;;;;11.57;6.30;;;15.10;95.00;;;;;;5017904;28;20044;-66
2022/05/31 11:45:37;;;;;;;10.52;6.55;;;15.10;95.40;;;;;;5031481;28;20045;-66
2022/05/31 11:48:09;;;;;;;;;;;15.00;95.70;;;;;;5006688;28;20503;-66
2022/05/31 11:51:01;;;;;;;9.15;6.47;;;15.00;96.30;;;;;;5021825;28;19924;-66
2022/05/31 11:54:04;;;;;;;13.25;6.40;;;15.00;96.20;;;;;;5001001;28;20044;-66
2022/05/31 11:56:37;;;;;;;11.10;6.97;;;15.00;96.30;;;;;;4998233;28;20096;-66
2022/05/31 11:59:19;;;;;;;9.75;5.90;;;15.00;96.00;;;;;;5028530;28;20037;-65
2022/05/31 12:01:56;;;;;;;10.27;6.50;;;15.10;96.00;;;;;;5000257;28;20420;-67
2022/05/31 12:04:39;;;;;;;12.73;6.43;;;15.10;95.80;;;;;;5000640;28;20399;-66
2022/05/31 12:07:14;;;;;;;10.98;7.30;;;15.20;95.60;;;;;;4996592;28;20386;-65
2022/05/31 12:09:49;;;;;;;10.13;7.50;;;15.20;95.30;;;;;;4997606;28;20415;-66
2022/05/31 12:12:20;;;;;;;10.25;6.93;;;15.30;94.80;;;;;;5024872;28;20048;-66
2022/05/31 12:14:51;;;;;;;9.85;6.47;;;15.20;94.50;;;;;;4996467;28;20465;-66
2022/05/31 12:17:42;;;;;;;10.10;6.47;;;15.30;94.80;;;;;;5004558;28;20431;-65
2022/05/31 12:20:30;;;;;;;12.10;6.57;;;15.30;94.50;;;;;;4996020;28;20052;-66
2022/05/31 12:23:21;;;;;;;11.68;6.38;;;15.30;94.60;;;;;;5000409;28;20400;-66
2022/05/31 12:25:52;;;;;;;9.77;6.80;;;15.30;94.10;;;;;;4997040;28;20048;-66
2022/05/31 12:28:25;;;;;;;10.25;6.30;;;15.40;93.80;;;;;;5022014;28;20045;-66
2022/05/31 12:31:03;;;;;;;9.30;6.07;;;15.50;93.90;;;;;;5012369;28;20488;-65
2022/05/31 12:33:46;;;;;;;11.82;5.95;;;15.60;93.80;;;;;;4991212;28;20042;-66
2022/05/31 12:36:14;;;;;;;12.85;5.40;;;15.80;93.30;;;;;;5022906;28;20120;-66
2022/05/31 12:39:08;;;;;;;9.02;5.63;;;15.90;92.30;;;;;;5017624;28;20048;-65
2022/05/31 12:41:46;;;;;;;5.95;3.95;;;16.00;92.00;;;;;;5013733;28;20048;-66
2022/05/31 12:44:11;;;;;;;8.05;4.22;;;16.00;91.60;;;;;;5015238;28;20041;-65
2022/05/31 12:46:47;;;;;;;7.13;4.07;;;16.00;92.30;;;;;;5020090;28;20049;-65
2022/05/31 12:49:27;;;;;;;8.13;3.58;;;16.10;92.30;;;;;;5006821;28;20057;-65
2022/05/31 12:52:09;;;;;;;6.43;3.35;;;16.10;90.40;;;;;;5013115;28;20443;-66
2022/05/31 12:54:48;;;;;;;6.38;2.85;;;16.10;91.40;;;;;;5010579;28;20080;-66
2022/05/31 13:00:45;;;;;;;9.43;3.75;;;16.20;90.40;;;;;;5007081;28;20053;-65
2022/05/31 13:03:34;;;;;;;7.55;4.00;;;16.20;90.70;;;;;;5024703;28;20484;-66
2022/05/31 13:06:07;;;;;;;7.88;3.10;;;16.30;90.30;;;;;;4969081;28;20140;-66
2022/05/31 13:08:59;;;;;;;6.90;3.50;;;16.30;91.20;;;;;;5005095;28;20056;-66
2022/05/31 13:20:21;;;;;;;6.15;2.97;;;17.60;90.30;;;;;;5005835;28;20037;-65
2022/05/31 13:22:52;;;;;;;8.25;3.20;;;18.00;86.10;;;;;;5002490;28;20468;-66
2022/05/31 13:25:30;;;;;;;7.25;3.55;;;18.10;86.20;;;;;;5019826;28;20030;-66
2022/05/31 13:27:59;;;;;;;5.53;3.33;;;18.40;87.60;;;;;;5012601;28;20056;-66
2022/05/31 13:30:31;;;;;;;7.68;4.03;;;18.70;87.90;;;;;;5015682;28;20064;-66
2022/05/31 13:32:57;;;;;;;;;;;18.90;82.90;;;;;;5000111;28;20044;-66
2022/05/31 13:35:26;;;;;;;7.05;4.07;;;18.80;79.20;;;;;;5004521;28;19917;-66
2022/05/31 13:38:09;;;;;;;5.57;3.60;;;18.80;81.70;;;;;;5012267;28;20038;-66
2022/05/31 13:40:49;;;;;;;4.25;2.97;;;18.80;81.20;;;;;;5011435;28;20041;-66
2022/05/31 13:43:23;;;;;;;4.68;3.45;;;19.00;81.80;;;;;;4976748;28;20059;-66
2022/05/31 13:45:52;;;;;;;7.47;3.65;;;19.10;81.50;;;;;;4990835;28;20045;-66
2022/05/31 13:48:23;;;;;;;5.13;3.10;;;19.10;80.30;;;;;;5011147;28;20034;-66
2022/05/31 13:50:55;;;;;;;8.13;3.58;;;19.10;79.60;;;;;;5009915;28;20531;-66
2022/05/31 13:53:21;;;;;;;4.95;3.20;;;19.10;76.80;;;;;;4987151;28;20121;-66
2022/05/31 13:55:55;;;;;;;9.88;3.80;;;18.90;77.20;;;;;;5011083;28;20603;-66
2022/05/31 13:58:23;;;;;;;6.65;3.40;;;18.80;76.40;;;;;;4990889;28;20076;-66